sensor_id;sensor_type;location;lat;lon;timestamp;P1;durP1;ratioP1;P2;durP2;ratioP2
52106;SDS011;38105;52.968;5.974;2023-03-24T00:02:20;18.40;;;6.93;;
52106;SDS011;38105;52.968;5.974;2023-03-24T00:04:47;16.20;;;6.57;;
52106;SDS011;38105;52.968;5.974;2023-03-24T00:07:15;18.13;;;7.05;;
52106;SDS011;38105;52.968;5.974;2023-03-24T00:09:41;15.05;;;6.50;;
52106;SDS011;38105;52.968;5.974;2023-03-24T00:12:08;18.83;;;7.18;;
52106;SDS011;38105;52.968;5.974;2023-03-24T00:14:35;17.58;;;6.80;;
52106;SDS011;38105;52.968;5.974;2023-03-24T00:17:03;17.70;;;7.00;;
52106;SDS011;38105;52.968;5.974;2023-03-24T00:19:30;16.38;;;6.75;;
52106;SDS011;38105;52.968;5.974;2023-03-24T00:21:58;19.25;;;7.18;;
52106;SDS011;38105;52.968;5.974;2023-03-24T00:24:24;19.65;;;7.70;;
52106;SDS011;38105;52.968;5.974;2023-03-24T00:26:51;15.18;;;7.30;;
52106;SDS011;38105;52.968;5.974;2023-03-24T00:29:16;14.25;;;6.53;;
52106;SDS011;38105;52.968;5.974;2023-03-24T00:31:44;17.25;;;6.75;;
52106;SDS011;38105;52.968;5.974;2023-03-24T00:34:09;17.70;;;6.00;;
52106;SDS011;38105;52.968;5.974;2023-03-24T00:36:36;11.93;;;6.05;;
52106;SDS011;38105;52.968;5.974;2023-03-24T00:39:02;14.20;;;5.78;;
52106;SDS011;38105;52.968;5.974;2023-03-24T00:41:30;17.27;;;5.90;;
52106;SDS011;38105;52.968;5.974;2023-03-24T00:43:56;14.27;;;6.18;;
52106;SDS011;38105;52.968;5.974;2023-03-24T00:46:23;13.35;;;5.80;;
52106;SDS011;38105;52.968;5.974;2023-03-24T00:49:00;13.75;;;6.28;;
52106;SDS011;38105;52.968;5.974;2023-03-24T00:51:32;13.70;;;5.88;;
52106;SDS011;38105;52.968;5.974;2023-03-24T00:54:02;12.40;;;5.57;;
52106;SDS011;38105;52.968;5.974;2023-03-24T00:56:29;9.52;;;5.38;;
52106;SDS011;38105;52.968;5.974;2023-03-24T00:58:56;10.52;;;5.40;;
52106;SDS011;38105;52.968;5.974;2023-03-24T01:01:25;12.30;;;5.60;;
52106;SDS011;38105;52.968;5.974;2023-03-24T01:03:53;15.57;;;5.65;;
52106;SDS011;38105;52.968;5.974;2023-03-24T01:06:21;9.50;;;5.82;;
52106;SDS011;38105;52.968;5.974;2023-03-24T01:08:48;11.98;;;5.75;;
52106;SDS011;38105;52.968;5.974;2023-03-24T01:11:18;12.43;;;6.20;;
52106;SDS011;38105;52.968;5.974;2023-03-24T01:13:46;14.70;;;5.82;;
52106;SDS011;38105;52.968;5.974;2023-03-24T01:16:13;10.50;;;5.78;;
52106;SDS011;38105;52.968;5.974;2023-03-24T01:18:39;14.00;;;5.80;;
52106;SDS011;38105;52.968;5.974;2023-03-24T01:21:09;13.65;;;6.93;;
52106;SDS011;38105;52.968;5.974;2023-03-24T01:23:36;12.38;;;5.85;;
52106;SDS011;38105;52.968;5.974;2023-03-24T01:26:06;12.05;;;6.00;;
52106;SDS011;38105;52.968;5.974;2023-03-24T01:28:34;13.68;;;6.82;;
52106;SDS011;38105;52.968;5.974;2023-03-24T01:31:04;12.60;;;6.20;;
52106;SDS011;38105;52.968;5.974;2023-03-24T01:33:31;14.32;;;7.20;;
52106;SDS011;38105;52.968;5.974;2023-03-24T01:35:57;14.15;;;6.85;;
52106;SDS011;38105;52.968;5.974;2023-03-24T01:38:22;12.50;;;5.95;;
52106;SDS011;38105;52.968;5.974;2023-03-24T01:40:48;12.27;;;6.68;;
52106;SDS011;38105;52.968;5.974;2023-03-24T01:43:21;11.80;;;6.20;;
52106;SDS011;38105;52.968;5.974;2023-03-24T01:45:54;13.05;;;6.05;;
52106;SDS011;38105;52.968;5.974;2023-03-24T01:56:48;10.25;;;5.80;;
52106;SDS011;38105;52.968;5.974;2023-03-24T01:59:21;14.55;;;6.70;;
52106;SDS011;38105;52.968;5.974;2023-03-24T02:01:51;11.63;;;6.03;;
52106;SDS011;38105;52.968;5.974;2023-03-24T02:04:27;12.07;;;6.47;;
52106;SDS011;38105;52.968;5.974;2023-03-24T02:06:59;12.18;;;6.07;;
52106;SDS011;38105;52.968;5.974;2023-03-24T02:09:31;13.13;;;6.93;;
52106;SDS011;38105;52.968;5.974;2023-03-24T02:11:57;10.55;;;5.55;;
52106;SDS011;38105;52.968;5.974;2023-03-24T02:14:24;11.60;;;6.55;;
52106;SDS011;38105;52.968;5.974;2023-03-24T02:30:41;11.63;;;5.53;;
52106;SDS011;38105;52.968;5.974;2023-03-24T02:33:40;11.52;;;6.00;;
52106;SDS011;38105;52.968;5.974;2023-03-24T02:36:26;9.87;;;5.13;;
52106;SDS011;38105;52.968;5.974;2023-03-24T02:53:49;9.43;;;4.82;;
52106;SDS011;38105;52.968;5.974;2023-03-24T02:59:30;7.13;;;4.50;;
52106;SDS011;38105;52.968;5.974;2023-03-24T03:02:13;6.18;;;4.07;;
52106;SDS011;38105;52.968;5.974;2023-03-24T03:04:46;9.50;;;4.38;;
52106;SDS011;38105;52.968;5.974;2023-03-24T03:07:21;9.27;;;4.75;;
52106;SDS011;38105;52.968;5.974;2023-03-24T03:10:11;8.95;;;4.68;;
52106;SDS011;38105;52.968;5.974;2023-03-24T03:12:54;10.97;;;4.93;;
52106;SDS011;38105;52.968;5.974;2023-03-24T03:15:28;9.60;;;4.70;;
52106;SDS011;38105;52.968;5.974;2023-03-24T03:18:00;8.35;;;4.15;;
52106;SDS011;38105;52.968;5.974;2023-03-24T03:20:43;8.18;;;3.42;;
52106;SDS011;38105;52.968;5.974;2023-03-24T03:23:19;6.13;;;2.55;;
52106;SDS011;38105;52.968;5.974;2023-03-24T03:26:02;10.57;;;2.58;;
52106;SDS011;38105;52.968;5.974;2023-03-24T03:28:34;9.18;;;2.00;;
52106;SDS011;38105;52.968;5.974;2023-03-24T03:31:10;8.60;;;2.30;;
52106;SDS011;38105;52.968;5.974;2023-03-24T03:33:45;8.98;;;2.17;;
52106;SDS011;38105;52.968;5.974;2023-03-24T03:36:28;11.35;;;2.35;;
52106;SDS011;38105;52.968;5.974;2023-03-24T03:39:23;11.82;;;2.35;;
52106;SDS011;38105;52.968;5.974;2023-03-24T03:41:54;10.93;;;2.10;;
52106;SDS011;38105;52.968;5.974;2023-03-24T03:44:20;10.15;;;2.75;;
52106;SDS011;38105;52.968;5.974;2023-03-24T03:46:46;14.02;;;2.17;;
52106;SDS011;38105;52.968;5.974;2023-03-24T03:49:12;8.18;;;1.98;;
52106;SDS011;38105;52.968;5.974;2023-03-24T03:51:38;14.15;;;2.45;;
52106;SDS011;38105;52.968;5.974;2023-03-24T03:54:07;11.60;;;2.15;;
52106;SDS011;38105;52.968;5.974;2023-03-24T03:56:35;16.83;;;2.30;;
52106;SDS011;38105;52.968;5.974;2023-03-24T03:59:02;6.97;;;1.52;;
52106;SDS011;38105;52.968;5.974;2023-03-24T04:01:30;12.25;;;1.90;;
52106;SDS011;38105;52.968;5.974;2023-03-24T04:07:38;11.93;;;2.00;;
52106;SDS011;38105;52.968;5.974;2023-03-24T04:10:15;15.90;;;2.70;;
52106;SDS011;38105;52.968;5.974;2023-03-24T04:12:56;10.93;;;1.90;;
52106;SDS011;38105;52.968;5.974;2023-03-24T04:18:53;11.43;;;2.55;;
52106;SDS011;38105;52.968;5.974;2023-03-24T04:21:34;11.57;;;2.42;;
52106;SDS011;38105;52.968;5.974;2023-03-24T04:24:25;11.88;;;2.08;;
52106;SDS011;38105;52.968;5.974;2023-03-24T04:32:51;14.55;;;2.45;;
52106;SDS011;38105;52.968;5.974;2023-03-24T04:35:26;16.38;;;2.90;;
52106;SDS011;38105;52.968;5.974;2023-03-24T04:38:04;18.65;;;2.75;;
52106;SDS011;38105;52.968;5.974;2023-03-24T04:40:35;19.60;;;3.40;;
52106;SDS011;38105;52.968;5.974;2023-03-24T04:43:06;18.70;;;4.00;;
52106;SDS011;38105;52.968;5.974;2023-03-24T04:45:37;16.67;;;3.05;;
52106;SDS011;38105;52.968;5.974;2023-03-24T04:48:04;19.20;;;3.28;;
52106;SDS011;38105;52.968;5.974;2023-03-24T04:50:37;20.92;;;3.38;;
52106;SDS011;38105;52.968;5.974;2023-03-24T04:53:04;22.23;;;3.83;;
52106;SDS011;38105;52.968;5.974;2023-03-24T04:55:47;21.30;;;3.90;;
52106;SDS011;38105;52.968;5.974;2023-03-24T04:58:21;19.73;;;3.40;;
52106;SDS011;38105;52.968;5.974;2023-03-24T05:00:48;16.27;;;3.05;;
52106;SDS011;38105;52.968;5.974;2023-03-24T05:03:15;20.38;;;3.33;;
52106;SDS011;38105;52.968;5.974;2023-03-24T05:05:42;20.45;;;3.17;;
52106;SDS011;38105;52.968;5.974;2023-03-24T05:08:11;20.42;;;2.92;;
52106;SDS011;38105;52.968;5.974;2023-03-24T05:10:37;15.43;;;2.67;;
52106;SDS011;38105;52.968;5.974;2023-03-24T05:13:03;20.52;;;3.47;;
52106;SDS011;38105;52.968;5.974;2023-03-24T05:15:29;17.75;;;3.58;;
52106;SDS011;38105;52.968;5.974;2023-03-24T05:17:55;15.15;;;3.15;;
52106;SDS011;38105;52.968;5.974;2023-03-24T05:20:21;16.38;;;2.55;;
52106;SDS011;38105;52.968;5.974;2023-03-24T05:22:48;20.33;;;3.08;;
52106;SDS011;38105;52.968;5.974;2023-03-24T05:25:14;17.88;;;2.67;;
52106;SDS011;38105;52.968;5.974;2023-03-24T05:27:41;20.40;;;2.78;;
52106;SDS011;38105;52.968;5.974;2023-03-24T05:30:07;18.00;;;2.78;;
52106;SDS011;38105;52.968;5.974;2023-03-24T05:32:33;19.80;;;3.08;;
52106;SDS011;38105;52.968;5.974;2023-03-24T05:34:59;18.38;;;2.55;;
52106;SDS011;38105;52.968;5.974;2023-03-24T05:37:25;17.40;;;2.97;;
52106;SDS011;38105;52.968;5.974;2023-03-24T05:39:51;21.02;;;2.65;;
52106;SDS011;38105;52.968;5.974;2023-03-24T05:42:17;17.15;;;2.58;;
52106;SDS011;38105;52.968;5.974;2023-03-24T05:44:44;23.13;;;3.30;;
52106;SDS011;38105;52.968;5.974;2023-03-24T05:47:10;23.27;;;4.00;;
52106;SDS011;38105;52.968;5.974;2023-03-24T05:49:40;18.98;;;3.17;;
52106;SDS011;38105;52.968;5.974;2023-03-24T05:52:09;20.10;;;3.65;;
52106;SDS011;38105;52.968;5.974;2023-03-24T05:54:36;17.42;;;2.83;;
52106;SDS011;38105;52.968;5.974;2023-03-24T05:57:04;20.60;;;2.95;;
52106;SDS011;38105;52.968;5.974;2023-03-24T05:59:33;17.00;;;2.92;;
52106;SDS011;38105;52.968;5.974;2023-03-24T06:01:59;17.25;;;3.20;;
52106;SDS011;38105;52.968;5.974;2023-03-24T06:04:25;20.27;;;3.40;;
52106;SDS011;38105;52.968;5.974;2023-03-24T06:06:58;21.60;;;4.00;;
52106;SDS011;38105;52.968;5.974;2023-03-24T06:09:24;21.75;;;2.90;;
52106;SDS011;38105;52.968;5.974;2023-03-24T06:11:56;16.70;;;2.83;;
52106;SDS011;38105;52.968;5.974;2023-03-24T06:14:26;25.13;;;3.35;;
52106;SDS011;38105;52.968;5.974;2023-03-24T06:16:51;15.98;;;2.95;;
52106;SDS011;38105;52.968;5.974;2023-03-24T06:19:17;20.77;;;3.60;;
52106;SDS011;38105;52.968;5.974;2023-03-24T06:21:47;17.80;;;3.05;;
52106;SDS011;38105;52.968;5.974;2023-03-24T06:24:15;23.60;;;3.55;;
52106;SDS011;38105;52.968;5.974;2023-03-24T06:26:41;19.10;;;3.58;;
52106;SDS011;38105;52.968;5.974;2023-03-24T06:29:09;19.35;;;3.55;;
52106;SDS011;38105;52.968;5.974;2023-03-24T06:31:35;21.17;;;3.85;;
52106;SDS011;38105;52.968;5.974;2023-03-24T06:34:02;18.17;;;3.78;;
52106;SDS011;38105;52.968;5.974;2023-03-24T06:36:28;22.42;;;3.15;;
52106;SDS011;38105;52.968;5.974;2023-03-24T06:38:54;27.33;;;3.58;;
52106;SDS011;38105;52.968;5.974;2023-03-24T06:41:20;20.23;;;3.10;;
52106;SDS011;38105;52.968;5.974;2023-03-24T06:43:46;22.38;;;3.58;;
52106;SDS011;38105;52.968;5.974;2023-03-24T06:46:12;22.80;;;3.65;;
52106;SDS011;38105;52.968;5.974;2023-03-24T06:48:38;25.45;;;4.15;;
52106;SDS011;38105;52.968;5.974;2023-03-24T06:51:04;18.70;;;3.13;;
52106;SDS011;38105;52.968;5.974;2023-03-24T06:53:30;20.75;;;3.25;;
52106;SDS011;38105;52.968;5.974;2023-03-24T06:55:56;23.05;;;3.90;;
52106;SDS011;38105;52.968;5.974;2023-03-24T06:58:21;31.25;;;4.65;;
52106;SDS011;38105;52.968;5.974;2023-03-24T07:00:47;24.13;;;4.38;;
52106;SDS011;38105;52.968;5.974;2023-03-24T07:03:14;28.80;;;4.88;;
52106;SDS011;38105;52.968;5.974;2023-03-24T07:05:41;30.15;;;4.15;;
52106;SDS011;38105;52.968;5.974;2023-03-24T07:08:08;28.58;;;4.03;;
52106;SDS011;38105;52.968;5.974;2023-03-24T07:10:36;26.83;;;4.45;;
52106;SDS011;38105;52.968;5.974;2023-03-24T07:13:06;26.27;;;5.00;;
52106;SDS011;38105;52.968;5.974;2023-03-24T07:15:33;33.05;;;5.85;;
52106;SDS011;38105;52.968;5.974;2023-03-24T07:17:59;28.50;;;5.20;;
52106;SDS011;38105;52.968;5.974;2023-03-24T07:20:24;34.33;;;5.63;;
52106;SDS011;38105;52.968;5.974;2023-03-24T07:22:54;30.67;;;4.82;;
52106;SDS011;38105;52.968;5.974;2023-03-24T07:25:20;28.05;;;4.32;;
52106;SDS011;38105;52.968;5.974;2023-03-24T07:27:45;34.20;;;5.25;;
52106;SDS011;38105;52.968;5.974;2023-03-24T07:30:11;33.25;;;5.70;;
52106;SDS011;38105;52.968;5.974;2023-03-24T07:32:37;29.73;;;4.70;;
52106;SDS011;38105;52.968;5.974;2023-03-24T07:35:05;32.28;;;6.05;;
52106;SDS011;38105;52.968;5.974;2023-03-24T07:37:31;27.90;;;4.13;;
52106;SDS011;38105;52.968;5.974;2023-03-24T07:39:57;32.95;;;4.90;;
52106;SDS011;38105;52.968;5.974;2023-03-24T07:42:22;30.20;;;5.18;;
52106;SDS011;38105;52.968;5.974;2023-03-24T07:44:49;35.17;;;5.13;;
52106;SDS011;38105;52.968;5.974;2023-03-24T07:47:15;35.47;;;5.13;;
52106;SDS011;38105;52.968;5.974;2023-03-24T07:49:41;29.65;;;4.97;;
52106;SDS011;38105;52.968;5.974;2023-03-24T07:52:07;42.53;;;5.88;;
52106;SDS011;38105;52.968;5.974;2023-03-24T07:54:32;27.58;;;4.68;;
52106;SDS011;38105;52.968;5.974;2023-03-24T07:56:59;30.38;;;4.82;;
52106;SDS011;38105;52.968;5.974;2023-03-24T07:59:25;36.13;;;5.68;;
52106;SDS011;38105;52.968;5.974;2023-03-24T08:01:51;37.72;;;5.28;;
52106;SDS011;38105;52.968;5.974;2023-03-24T08:04:17;34.47;;;5.55;;
52106;SDS011;38105;52.968;5.974;2023-03-24T08:06:44;32.20;;;5.45;;
52106;SDS011;38105;52.968;5.974;2023-03-24T08:09:10;35.53;;;5.85;;
52106;SDS011;38105;52.968;5.974;2023-03-24T08:11:36;33.63;;;5.57;;
52106;SDS011;38105;52.968;5.974;2023-03-24T08:14:02;28.70;;;5.65;;
52106;SDS011;38105;52.968;5.974;2023-03-24T08:16:28;41.08;;;6.75;;
52106;SDS011;38105;52.968;5.974;2023-03-24T08:18:54;30.67;;;5.60;;
52106;SDS011;38105;52.968;5.974;2023-03-24T08:21:22;32.00;;;5.60;;
52106;SDS011;38105;52.968;5.974;2023-03-24T08:23:49;29.27;;;4.60;;
52106;SDS011;38105;52.968;5.974;2023-03-24T08:26:15;28.20;;;5.03;;
52106;SDS011;38105;52.968;5.974;2023-03-24T08:28:42;32.53;;;5.53;;
52106;SDS011;38105;52.968;5.974;2023-03-24T08:31:07;32.83;;;5.93;;
52106;SDS011;38105;52.968;5.974;2023-03-24T08:33:33;29.20;;;5.82;;
52106;SDS011;38105;52.968;5.974;2023-03-24T08:35:59;32.40;;;5.75;;
52106;SDS011;38105;52.968;5.974;2023-03-24T08:38:26;29.33;;;5.28;;
52106;SDS011;38105;52.968;5.974;2023-03-24T08:40:58;32.72;;;6.18;;
52106;SDS011;38105;52.968;5.974;2023-03-24T08:43:29;30.48;;;5.65;;
52106;SDS011;38105;52.968;5.974;2023-03-24T08:45:58;25.30;;;4.68;;
52106;SDS011;38105;52.968;5.974;2023-03-24T08:48:26;32.83;;;5.50;;
52106;SDS011;38105;52.968;5.974;2023-03-24T08:50:53;27.33;;;4.80;;
52106;SDS011;38105;52.968;5.974;2023-03-24T08:53:19;24.27;;;5.70;;
52106;SDS011;38105;52.968;5.974;2023-03-24T08:55:45;26.90;;;5.18;;
52106;SDS011;38105;52.968;5.974;2023-03-24T08:58:13;26.85;;;5.35;;
52106;SDS011;38105;52.968;5.974;2023-03-24T09:00:40;28.02;;;5.43;;
52106;SDS011;38105;52.968;5.974;2023-03-24T09:03:06;24.50;;;5.43;;
52106;SDS011;38105;52.968;5.974;2023-03-24T09:05:31;26.15;;;5.43;;
52106;SDS011;38105;52.968;5.974;2023-03-24T09:07:57;29.17;;;5.82;;
52106;SDS011;38105;52.968;5.974;2023-03-24T09:10:24;22.40;;;4.82;;
52106;SDS011;38105;52.968;5.974;2023-03-24T09:12:51;24.02;;;4.82;;
52106;SDS011;38105;52.968;5.974;2023-03-24T09:15:16;22.17;;;4.90;;
52106;SDS011;38105;52.968;5.974;2023-03-24T09:17:42;27.92;;;5.05;;
52106;SDS011;38105;52.968;5.974;2023-03-24T09:20:10;23.55;;;5.05;;
52106;SDS011;38105;52.968;5.974;2023-03-24T09:22:39;24.27;;;4.50;;
52106;SDS011;38105;52.968;5.974;2023-03-24T09:25:06;22.15;;;4.75;;
52106;SDS011;38105;52.968;5.974;2023-03-24T09:27:33;27.33;;;5.18;;
52106;SDS011;38105;52.968;5.974;2023-03-24T09:29:59;28.23;;;5.57;;
52106;SDS011;38105;52.968;5.974;2023-03-24T09:32:25;22.13;;;4.50;;
52106;SDS011;38105;52.968;5.974;2023-03-24T09:34:50;30.13;;;6.13;;
52106;SDS011;38105;52.968;5.974;2023-03-24T09:37:16;22.05;;;4.72;;
52106;SDS011;38105;52.968;5.974;2023-03-24T09:39:42;22.63;;;4.82;;
52106;SDS011;38105;52.968;5.974;2023-03-24T09:42:09;22.95;;;4.70;;
52106;SDS011;38105;52.968;5.974;2023-03-24T09:44:44;19.67;;;4.47;;
52106;SDS011;38105;52.968;5.974;2023-03-24T09:50:02;20.80;;;4.18;;
52106;SDS011;38105;52.968;5.974;2023-03-24T09:52:39;18.48;;;4.18;;
52106;SDS011;38105;52.968;5.974;2023-03-24T09:55:11;19.02;;;4.28;;
52106;SDS011;38105;52.968;5.974;2023-03-24T09:57:42;20.20;;;4.47;;
52106;SDS011;38105;52.968;5.974;2023-03-24T10:02:46;25.73;;;4.93;;
52106;SDS011;38105;52.968;5.974;2023-03-24T10:05:13;19.80;;;4.22;;
52106;SDS011;38105;52.968;5.974;2023-03-24T10:07:49;19.13;;;4.05;;
52106;SDS011;38105;52.968;5.974;2023-03-24T10:11:07;18.63;;;4.18;;
52106;SDS011;38105;52.968;5.974;2023-03-24T10:13:20;21.08;;;4.68;;
52106;SDS011;38105;52.968;5.974;2023-03-24T10:16:03;21.88;;;4.47;;
52106;SDS011;38105;52.968;5.974;2023-03-24T10:21:25;21.15;;;4.47;;
52106;SDS011;38105;52.968;5.974;2023-03-24T10:23:58;16.02;;;4.05;;
52106;SDS011;38105;52.968;5.974;2023-03-24T10:31:29;20.33;;;4.28;;
52106;SDS011;38105;52.968;5.974;2023-03-24T10:33:57;26.42;;;5.22;;
52106;SDS011;38105;52.968;5.974;2023-03-24T10:36:24;26.15;;;5.50;;
52106;SDS011;38105;52.968;5.974;2023-03-24T10:38:52;19.00;;;3.70;;
52106;SDS011;38105;52.968;5.974;2023-03-24T10:41:19;24.88;;;4.68;;
52106;SDS011;38105;52.968;5.974;2023-03-24T10:43:46;23.67;;;4.53;;
52106;SDS011;38105;52.968;5.974;2023-03-24T10:46:16;21.23;;;4.45;;
52106;SDS011;38105;52.968;5.974;2023-03-24T10:48:46;19.67;;;4.05;;
52106;SDS011;38105;52.968;5.974;2023-03-24T10:51:23;21.35;;;4.00;;
52106;SDS011;38105;52.968;5.974;2023-03-24T10:53:51;24.55;;;4.85;;
52106;SDS011;38105;52.968;5.974;2023-03-24T10:56:43;21.13;;;4.45;;
52106;SDS011;38105;52.968;5.974;2023-03-24T11:00:00;25.58;;;4.18;;
52106;SDS011;38105;52.968;5.974;2023-03-24T11:02:28;26.65;;;5.22;;
52106;SDS011;38105;52.968;5.974;2023-03-24T11:07:40;22.95;;;4.20;;
52106;SDS011;38105;52.968;5.974;2023-03-24T11:12:35;23.60;;;4.70;;
52106;SDS011;38105;52.968;5.974;2023-03-24T11:15:19;22.60;;;4.60;;
52106;SDS011;38105;52.968;5.974;2023-03-24T11:20:42;17.92;;;3.80;;
52106;SDS011;38105;52.968;5.974;2023-03-24T11:23:10;14.20;;;3.20;;
52106;SDS011;38105;52.968;5.974;2023-03-24T11:25:38;20.25;;;4.10;;
52106;SDS011;38105;52.968;5.974;2023-03-24T11:28:13;19.20;;;3.25;;
52106;SDS011;38105;52.968;5.974;2023-03-24T11:30:51;18.02;;;4.03;;
52106;SDS011;38105;52.968;5.974;2023-03-24T11:33:20;17.48;;;3.58;;
52106;SDS011;38105;52.968;5.974;2023-03-24T11:35:50;23.80;;;4.35;;
52106;SDS011;38105;52.968;5.974;2023-03-24T11:38:27;21.48;;;3.65;;
52106;SDS011;38105;52.968;5.974;2023-03-24T11:40:55;19.40;;;3.63;;
52106;SDS011;38105;52.968;5.974;2023-03-24T11:43:23;23.83;;;4.25;;
52106;SDS011;38105;52.968;5.974;2023-03-24T11:46:11;17.98;;;3.88;;
52106;SDS011;38105;52.968;5.974;2023-03-24T11:48:44;18.27;;;4.00;;
52106;SDS011;38105;52.968;5.974;2023-03-24T11:51:37;19.98;;;4.07;;
52106;SDS011;38105;52.968;5.974;2023-03-24T11:54:13;20.65;;;4.05;;
52106;SDS011;38105;52.968;5.974;2023-03-24T11:56:45;21.55;;;3.47;;
52106;SDS011;38105;52.968;5.974;2023-03-24T12:05:09;22.13;;;4.07;;
52106;SDS011;38105;52.968;5.974;2023-03-24T12:18:36;23.25;;;3.80;;
52106;SDS011;38105;52.968;5.974;2023-03-24T12:26:19;16.75;;;3.63;;
52106;SDS011;38105;52.968;5.974;2023-03-24T12:28:57;20.63;;;3.97;;
52106;SDS011;38105;52.968;5.974;2023-03-24T12:34:55;28.00;;;4.70;;
52106;SDS011;38105;52.968;5.974;2023-03-24T12:43:15;16.65;;;3.45;;
52106;SDS011;38105;52.968;5.974;2023-03-24T12:45:43;20.38;;;3.85;;
52106;SDS011;38105;52.968;5.974;2023-03-24T12:51:14;19.60;;;4.22;;
52106;SDS011;38105;52.968;5.974;2023-03-24T12:56:40;15.32;;;2.97;;
52106;SDS011;38105;52.968;5.974;2023-03-24T12:59:12;15.70;;;3.05;;
52106;SDS011;38105;52.968;5.974;2023-03-24T13:01:46;18.73;;;3.45;;
52106;SDS011;38105;52.968;5.974;2023-03-24T13:04:20;22.85;;;3.78;;
52106;SDS011;38105;52.968;5.974;2023-03-24T13:06:57;24.10;;;4.82;;
52106;SDS011;38105;52.968;5.974;2023-03-24T13:09:37;18.45;;;3.47;;
52106;SDS011;38105;52.968;5.974;2023-03-24T13:20:36;22.70;;;4.22;;
52106;SDS011;38105;52.968;5.974;2023-03-24T13:26:22;19.20;;;3.95;;
52106;SDS011;38105;52.968;5.974;2023-03-24T13:37:48;19.20;;;3.78;;
52106;SDS011;38105;52.968;5.974;2023-03-24T13:40:23;20.30;;;3.55;;
52106;SDS011;38105;52.968;5.974;2023-03-24T13:42:55;21.52;;;3.20;;
52106;SDS011;38105;52.968;5.974;2023-03-24T13:50:38;21.05;;;3.70;;
52106;SDS011;38105;52.968;5.974;2023-03-24T13:53:13;20.25;;;3.30;;
52106;SDS011;38105;52.968;5.974;2023-03-24T13:55:45;15.52;;;2.97;;
52106;SDS011;38105;52.968;5.974;2023-03-24T13:58:18;16.30;;;3.38;;
52106;SDS011;38105;52.968;5.974;2023-03-24T14:03:31;15.50;;;3.05;;
52106;SDS011;38105;52.968;5.974;2023-03-24T14:06:02;16.52;;;2.90;;
52106;SDS011;38105;52.968;5.974;2023-03-24T14:14:06;23.95;;;3.30;;
52106;SDS011;38105;52.968;5.974;2023-03-24T14:16:42;14.80;;;3.03;;
52106;SDS011;38105;52.968;5.974;2023-03-24T14:19:17;14.63;;;2.60;;
52106;SDS011;38105;52.968;5.974;2023-03-24T14:21:56;15.75;;;2.80;;
52106;SDS011;38105;52.968;5.974;2023-03-24T14:24:34;15.60;;;2.53;;
52106;SDS011;38105;52.968;5.974;2023-03-24T14:27:14;15.93;;;3.40;;
52106;SDS011;38105;52.968;5.974;2023-03-24T14:30:23;18.88;;;3.10;;
52106;SDS011;38105;52.968;5.974;2023-03-24T14:32:55;19.25;;;3.63;;
52106;SDS011;38105;52.968;5.974;2023-03-24T14:35:30;15.48;;;2.50;;
52106;SDS011;38105;52.968;5.974;2023-03-24T14:40:47;18.48;;;3.53;;
52106;SDS011;38105;52.968;5.974;2023-03-24T14:43:57;15.85;;;3.47;;
52106;SDS011;38105;52.968;5.974;2023-03-24T14:46:04;15.13;;;2.30;;
52106;SDS011;38105;52.968;5.974;2023-03-24T14:51:30;17.80;;;2.97;;
52106;SDS011;38105;52.968;5.974;2023-03-24T14:54:12;18.35;;;2.80;;
52106;SDS011;38105;52.968;5.974;2023-03-24T14:56:41;21.00;;;3.08;;
52106;SDS011;38105;52.968;5.974;2023-03-24T14:59:21;16.50;;;3.13;;
52106;SDS011;38105;52.968;5.974;2023-03-24T15:02:28;17.30;;;3.92;;
52106;SDS011;38105;52.968;5.974;2023-03-24T15:05:36;18.13;;;3.38;;
52106;SDS011;38105;52.968;5.974;2023-03-24T15:10:23;16.23;;;3.10;;
52106;SDS011;38105;52.968;5.974;2023-03-24T15:12:49;18.23;;;2.70;;
52106;SDS011;38105;52.968;5.974;2023-03-24T15:15:16;13.85;;;2.50;;
52106;SDS011;38105;52.968;5.974;2023-03-24T15:17:45;16.13;;;2.80;;
52106;SDS011;38105;52.968;5.974;2023-03-24T15:20:45;13.48;;;3.03;;
52106;SDS011;38105;52.968;5.974;2023-03-24T15:23:04;15.05;;;2.97;;
52106;SDS011;38105;52.968;5.974;2023-03-24T15:25:31;14.05;;;2.40;;
52106;SDS011;38105;52.968;5.974;2023-03-24T15:27:57;14.50;;;2.45;;
52106;SDS011;38105;52.968;5.974;2023-03-24T15:30:23;15.52;;;3.55;;
52106;SDS011;38105;52.968;5.974;2023-03-24T15:32:49;11.20;;;2.05;;
52106;SDS011;38105;52.968;5.974;2023-03-24T15:35:16;16.98;;;2.53;;
52106;SDS011;38105;52.968;5.974;2023-03-24T15:37:44;19.33;;;2.67;;
52106;SDS011;38105;52.968;5.974;2023-03-24T15:42:50;18.65;;;2.88;;
52106;SDS011;38105;52.968;5.974;2023-03-24T15:45:27;16.65;;;3.00;;
52106;SDS011;38105;52.968;5.974;2023-03-24T15:47:54;17.65;;;3.10;;
52106;SDS011;38105;52.968;5.974;2023-03-24T15:50:28;13.23;;;2.63;;
52106;SDS011;38105;52.968;5.974;2023-03-24T15:55:43;16.58;;;2.75;;
52106;SDS011;38105;52.968;5.974;2023-03-24T15:58:25;18.85;;;2.97;;
52106;SDS011;38105;52.968;5.974;2023-03-24T16:00:53;16.33;;;3.28;;
52106;SDS011;38105;52.968;5.974;2023-03-24T16:03:23;17.15;;;2.80;;
52106;SDS011;38105;52.968;5.974;2023-03-24T16:05:50;16.83;;;3.05;;
52106;SDS011;38105;52.968;5.974;2023-03-24T16:08:27;14.27;;;2.60;;
52106;SDS011;38105;52.968;5.974;2023-03-24T16:11:12;15.85;;;3.13;;
52106;SDS011;38105;52.968;5.974;2023-03-24T16:13:39;17.50;;;2.85;;
52106;SDS011;38105;52.968;5.974;2023-03-24T16:18:39;20.25;;;3.33;;
52106;SDS011;38105;52.968;5.974;2023-03-24T16:21:16;17.23;;;2.95;;
52106;SDS011;38105;52.968;5.974;2023-03-24T16:23:47;19.58;;;3.25;;
52106;SDS011;38105;52.968;5.974;2023-03-24T16:26:15;20.73;;;3.47;;
52106;SDS011;38105;52.968;5.974;2023-03-24T16:28:41;22.85;;;2.85;;
52106;SDS011;38105;52.968;5.974;2023-03-24T16:31:10;18.60;;;3.55;;
52106;SDS011;38105;52.968;5.974;2023-03-24T16:33:53;19.93;;;3.10;;
52106;SDS011;38105;52.968;5.974;2023-03-24T16:36:19;19.63;;;3.88;;
52106;SDS011;38105;52.968;5.974;2023-03-24T16:38:55;21.65;;;3.65;;
52106;SDS011;38105;52.968;5.974;2023-03-24T16:41:23;18.58;;;3.53;;
52106;SDS011;38105;52.968;5.974;2023-03-24T16:43:49;18.80;;;3.15;;
52106;SDS011;38105;52.968;5.974;2023-03-24T16:46:20;16.63;;;3.38;;
52106;SDS011;38105;52.968;5.974;2023-03-24T16:48:49;21.65;;;3.50;;
52106;SDS011;38105;52.968;5.974;2023-03-24T16:51:15;18.58;;;2.92;;
52106;SDS011;38105;52.968;5.974;2023-03-24T16:53:42;18.98;;;3.67;;
52106;SDS011;38105;52.968;5.974;2023-03-24T16:56:11;16.88;;;2.80;;
52106;SDS011;38105;52.968;5.974;2023-03-24T16:58:38;19.02;;;3.45;;
52106;SDS011;38105;52.968;5.974;2023-03-24T17:01:14;19.35;;;3.63;;
52106;SDS011;38105;52.968;5.974;2023-03-24T17:03:57;20.92;;;3.20;;
52106;SDS011;38105;52.968;5.974;2023-03-24T17:06:26;20.10;;;2.92;;
52106;SDS011;38105;52.968;5.974;2023-03-24T17:08:54;19.52;;;4.10;;
52106;SDS011;38105;52.968;5.974;2023-03-24T17:14:07;17.70;;;2.70;;
52106;SDS011;38105;52.968;5.974;2023-03-24T17:16:36;20.67;;;2.95;;
52106;SDS011;38105;52.968;5.974;2023-03-24T17:19:07;14.68;;;2.92;;
52106;SDS011;38105;52.968;5.974;2023-03-24T17:21:42;17.80;;;2.60;;
52106;SDS011;38105;52.968;5.974;2023-03-24T17:24:11;18.55;;;3.00;;
52106;SDS011;38105;52.968;5.974;2023-03-24T17:26:38;18.02;;;3.47;;
52106;SDS011;38105;52.968;5.974;2023-03-24T17:29:05;21.90;;;3.17;;
52106;SDS011;38105;52.968;5.974;2023-03-24T17:31:32;20.65;;;3.03;;
52106;SDS011;38105;52.968;5.974;2023-03-24T17:33:57;15.88;;;2.70;;
52106;SDS011;38105;52.968;5.974;2023-03-24T17:36:23;17.80;;;3.05;;
52106;SDS011;38105;52.968;5.974;2023-03-24T17:38:49;15.85;;;3.08;;
52106;SDS011;38105;52.968;5.974;2023-03-24T17:41:15;13.15;;;2.15;;